sensor_id;sensor_type;location;lat;lon;timestamp;pressure;altitude;pressure_sealevel;temperature;humidity
36600;BME280;35385;55.668;37.508;2023-04-27T00:00:16;98543.38;;;11.33;100.00
36600;BME280;35385;55.668;37.508;2023-04-27T00:01:17;98486.75;;;11.04;100.00
36600;BME280;35385;55.668;37.508;2023-04-27T00:02:17;98530.78;;;11.25;100.00
36600;BME280;35385;55.668;37.508;2023-04-27T00:03:18;98539.56;;;11.36;100.00
36600;BME280;35385;55.668;37.508;2023-04-27T00:04:18;98528.97;;;11.26;100.00
36600;BME280;35385;55.668;37.508;2023-04-27T00:05:20;98535.69;;;11.30;100.00
36600;BME280;35385;55.668;37.508;2023-04-27T00:06:20;98522.97;;;11.24;100.00
36600;BME280;35385;55.668;37.508;2023-04-27T00:07:21;98537.34;;;11.31;100.00
36600;BME280;35385;55.668;37.508;2023-04-27T00:08:21;98533.84;;;11.30;100.00
36600;BME280;35385;55.668;37.508;2023-04-27T00:09:22;98529.31;;;11.23;100.00
36600;BME280;35385;55.668;37.508;2023-04-27T00:10:22;98530.13;;;11.23;100.00
36600;BME280;35385;55.668;37.508;2023-04-27T00:11:23;98546.91;;;11.33;100.00
36600;BME280;35385;55.668;37.508;2023-04-27T00:12:24;98536.66;;;11.29;100.00
36600;BME280;35385;55.668;37.508;2023-04-27T00:13:25;98454.56;;;10.79;100.00
36600;BME280;35385;55.668;37.508;2023-04-27T00:14:26;98547.06;;;11.32;100.00
36600;BME280;35385;55.668;37.508;2023-04-27T00:15:27;98548.03;;;11.31;100.00
36600;BME280;35385;55.668;37.508;2023-04-27T00:16:28;98549.34;;;11.27;100.00
36600;BME280;35385;55.668;37.508;2023-04-27T00:17:29;98548.72;;;11.33;100.00
36600;BME280;35385;55.668;37.508;2023-04-27T00:18:31;98558.59;;;11.32;100.00
36600;BME280;35385;55.668;37.508;2023-04-27T00:19:31;98545.59;;;11.38;100.00
36600;BME280;35385;55.668;37.508;2023-04-27T00:20:32;98535.00;;;11.28;100.00
36600;BME280;35385;55.668;37.508;2023-04-27T00:21:33;98542.09;;;11.37;100.00
36600;BME280;35385;55.668;37.508;2023-04-27T00:22:34;98514.44;;;11.28;100.00
36600;BME280;35385;55.668;37.508;2023-04-27T00:23:35;98545.16;;;11.50;100.00
36600;BME280;35385;55.668;37.508;2023-04-27T00:24:35;98526.81;;;11.29;100.00
36600;BME280;35385;55.668;37.508;2023-04-27T00:25:36;98549.13;;;11.46;100.00
36600;BME280;35385;55.668;37.508;2023-04-27T00:26:37;98527.50;;;11.31;100.00
36600;BME280;35385;55.668;37.508;2023-04-27T00:27:37;98474.00;;;10.97;100.00
36600;BME280;35385;55.668;37.508;2023-04-27T00:28:38;98545.47;;;11.47;100.00
36600;BME280;35385;55.668;37.508;2023-04-27T00:29:39;98548.41;;;11.36;100.00
36600;BME280;35385;55.668;37.508;2023-04-27T00:30:42;98539.41;;;11.37;100.00
36600;BME280;35385;55.668;37.508;2023-04-27T00:31:42;98556.78;;;11.41;100.00
36600;BME280;35385;55.668;37.508;2023-04-27T00:32:43;98549.09;;;11.38;100.00
36600;BME280;35385;55.668;37.508;2023-04-27T00:33:46;98535.69;;;11.30;100.00
36600;BME280;35385;55.668;37.508;2023-04-27T00:34:46;98540.88;;;11.31;100.00
36600;BME280;35385;55.668;37.508;2023-04-27T00:35:47;98547.78;;;11.42;100.00
36600;BME280;35385;55.668;37.508;2023-04-27T00:36:48;98550.28;;;11.44;100.00
36600;BME280;35385;55.668;37.508;2023-04-27T00:37:48;98500.69;;;11.15;100.00
36600;BME280;35385;55.668;37.508;2023-04-27T00:38:49;98550.44;;;11.42;100.00
36600;BME280;35385;55.668;37.508;2023-04-27T00:39:50;98504.50;;;11.13;100.00
36600;BME280;35385;55.668;37.508;2023-04-27T00:40:50;98545.63;;;11.46;100.00
36600;BME280;35385;55.668;37.508;2023-04-27T00:41:51;98540.75;;;11.41;100.00
36600;BME280;35385;55.668;37.508;2023-04-27T00:42:51;98550.94;;;11.38;100.00
36600;BME280;35385;55.668;37.508;2023-04-27T00:43:52;98448.88;;;10.82;100.00
36600;BME280;35385;55.668;37.508;2023-04-27T00:44:53;98537.03;;;11.34;100.00
36600;BME280;35385;55.668;37.508;2023-04-27T00:45:56;98546.84;;;11.25;100.00
36600;BME280;35385;55.668;37.508;2023-04-27T00:46:57;98538.00;;;11.25;100.00
36600;BME280;35385;55.668;37.508;2023-04-27T00:47:58;98496.72;;;10.93;100.00
36600;BME280;35385;55.668;37.508;2023-04-27T00:48:59;98534.28;;;11.18;100.00
36600;BME280;35385;55.668;37.508;2023-04-27T00:50:00;98493.66;;;10.88;100.00
36600;BME280;35385;55.668;37.508;2023-04-27T00:51:01;98550.47;;;11.16;100.00
36600;BME280;35385;55.668;37.508;2023-04-27T00:52:02;98538.25;;;11.14;100.00
36600;BME280;35385;55.668;37.508;2023-04-27T00:53:04;98505.16;;;10.81;100.00
36600;BME280;35385;55.668;37.508;2023-04-27T00:54:05;98556.91;;;11.06;100.00
36600;BME280;35385;55.668;37.508;2023-04-27T00:55:07;98511.41;;;10.72;100.00
36600;BME280;35385;55.668;37.508;2023-04-27T00:56:07;98487.91;;;10.57;100.00
36600;BME280;35385;55.668;37.508;2023-04-27T00:57:08;98547.66;;;11.00;100.00
36600;BME280;35385;55.668;37.508;2023-04-27T00:58:09;98551.09;;;11.10;100.00
36600;BME280;35385;55.668;37.508;2023-04-27T00:59:10;98553.81;;;11.18;100.00
36600;BME280;35385;55.668;37.508;2023-04-27T01:00:10;98531.22;;;11.13;100.00
36600;BME280;35385;55.668;37.508;2023-04-27T01:01:12;98560.03;;;11.27;100.00
36600;BME280;35385;55.668;37.508;2023-04-27T01:02:12;98558.16;;;11.19;100.00
36600;BME280;35385;55.668;37.508;2023-04-27T01:03:13;98557.44;;;11.09;100.00
36600;BME280;35385;55.668;37.508;2023-04-27T01:04:14;98562.00;;;11.17;100.00
36600;BME280;35385;55.668;37.508;2023-04-27T01:05:16;98554.53;;;11.03;100.00
36600;BME280;35385;55.668;37.508;2023-04-27T01:06:16;98563.38;;;11.21;100.00
36600;BME280;35385;55.668;37.508;2023-04-27T01:07:17;98527.13;;;11.01;100.00
36600;BME280;35385;55.668;37.508;2023-04-27T01:08:17;98559.56;;;11.31;100.00
36600;BME280;35385;55.668;37.508;2023-04-27T01:09:18;98495.75;;;11.03;100.00
36600;BME280;35385;55.668;37.508;2023-04-27T01:10:19;98554.78;;;11.43;100.00
36600;BME280;35385;55.668;37.508;2023-04-27T01:11:20;98560.81;;;11.45;100.00
36600;BME280;35385;55.668;37.508;2023-04-27T01:12:21;98550.41;;;11.34;100.00
36600;BME280;35385;55.668;37.508;2023-04-27T01:13:22;98558.47;;;11.42;100.00
36600;BME280;35385;55.668;37.508;2023-04-27T01:14:22;98554.78;;;11.43;100.00
36600;BME280;35385;55.668;37.508;2023-04-27T01:15:23;98545.78;;;11.44;100.00
36600;BME280;35385;55.668;37.508;2023-04-27T01:16:23;98543.09;;;11.44;100.00
36600;BME280;35385;55.668;37.508;2023-04-27T01:17:24;98550.66;;;11.49;100.00
36600;BME280;35385;55.668;37.508;2023-04-27T01:18:25;98531.22;;;11.39;100.00
36600;BME280;35385;55.668;37.508;2023-04-27T01:19:25;98494.88;;;11.20;100.00
36600;BME280;35385;55.668;37.508;2023-04-27T01:20:29;98551.53;;;11.57;100.00
36600;BME280;35385;55.668;37.508;2023-04-27T01:21:31;98539.28;;;11.47;100.00
36600;BME280;35385;55.668;37.508;2023-04-27T01:22:32;98542.44;;;11.42;100.00
36600;BME280;35385;55.668;37.508;2023-04-27T01:23:33;98520.16;;;11.33;100.00
36600;BME280;35385;55.668;37.508;2023-04-27T01:24:33;98547.09;;;11.40;100.00
36600;BME280;35385;55.668;37.508;2023-04-27T01:25:34;98541.81;;;11.22;100.00
36600;BME280;35385;55.668;37.508;2023-04-27T01:26:35;98542.66;;;11.23;100.00
36600;BME280;35385;55.668;37.508;2023-04-27T01:27:35;98517.13;;;11.03;100.00
36600;BME280;35385;55.668;37.508;2023-04-27T01:28:36;98511.88;;;11.11;100.00
36600;BME280;35385;55.668;37.508;2023-04-27T01:29:36;98533.31;;;11.27;100.00
36600;BME280;35385;55.668;37.508;2023-04-27T01:30:37;98500.41;;;11.01;100.00
36600;BME280;35385;55.668;37.508;2023-04-27T01:31:38;98540.72;;;11.33;100.00
36600;BME280;35385;55.668;37.508;2023-04-27T01:32:38;98542.53;;;11.32;100.00
36600;BME280;35385;55.668;37.508;2023-04-27T01:33:39;98519.38;;;11.15;100.00
36600;BME280;35385;55.668;37.508;2023-04-27T01:34:40;98533.66;;;11.24;100.00
36600;BME280;35385;55.668;37.508;2023-04-27T01:35:41;98515.84;;;11.07;100.00
36600;BME280;35385;55.668;37.508;2023-04-27T01:36:41;98489.97;;;10.81;100.00
36600;BME280;35385;55.668;37.508;2023-04-27T01:37:42;98534.56;;;11.15;100.00
36600;BME280;35385;55.668;37.508;2023-04-27T01:38:42;98543.28;;;11.17;100.00
36600;BME280;35385;55.668;37.508;2023-04-27T01:39:43;98543.66;;;11.22;100.00
36600;BME280;35385;55.668;37.508;2023-04-27T01:40:44;98536.56;;;11.13;100.00
36600;BME280;35385;55.668;37.508;2023-04-27T01:41:45;98495.91;;;10.75;100.00
36600;BME280;35385;55.668;37.508;2023-04-27T01:42:45;98542.56;;;11.07;100.00
36600;BME280;35385;55.668;37.508;2023-04-27T01:43:46;98536.69;;;11.03;100.00
36600;BME280;35385;55.668;37.508;2023-04-27T01:44:47;98533.13;;;10.94;100.00
36600;BME280;35385;55.668;37.508;2023-04-27T01:45:48;98548.75;;;11.07;100.00
36600;BME280;35385;55.668;37.508;2023-04-27T01:46:49;98536.16;;;10.99;100.00
36600;BME280;35385;55.668;37.508;2023-04-27T01:47:52;98548.50;;;11.01;100.00
36600;BME280;35385;55.668;37.508;2023-04-27T01:48:53;98541.34;;;11.01;100.00
36600;BME280;35385;55.668;37.508;2023-04-27T01:49:54;98552.31;;;10.98;100.00
36600;BME280;35385;55.668;37.508;2023-04-27T01:50:54;98533.19;;;10.85;100.00
36600;BME280;35385;55.668;37.508;2023-04-27T01:51:55;98493.25;;;10.57;100.00
36600;BME280;35385;55.668;37.508;2023-04-27T01:52:55;98547.41;;;10.85;100.00
36600;BME280;35385;55.668;37.508;2023-04-27T01:53:56;98533.25;;;10.67;100.00
36600;BME280;35385;55.668;37.508;2023-04-27T01:54:56;98539.25;;;10.69;100.00
36600;BME280;35385;55.668;37.508;2023-04-27T01:55:57;98541.56;;;10.64;100.00
36600;BME280;35385;55.668;37.508;2023-04-27T01:57:01;98544.28;;;10.72;100.00
36600;BME280;35385;55.668;37.508;2023-04-27T01:58:02;98528.25;;;10.72;100.00
36600;BME280;35385;55.668;37.508;2023-04-27T01:59:02;98500.72;;;10.54;100.00
36600;BME280;35385;55.668;37.508;2023-04-27T02:00:03;98531.75;;;10.90;100.00
36600;BME280;35385;55.668;37.508;2023-04-27T02:01:05;98514.66;;;10.83;100.00
36600;BME280;35385;55.668;37.508;2023-04-27T02:02:05;98502.47;;;10.81;100.00
36600;BME280;35385;55.668;37.508;2023-04-27T02:03:06;98535.91;;;11.11;100.00
36600;BME280;35385;55.668;37.508;2023-04-27T02:04:06;98554.28;;;11.14;100.00
36600;BME280;35385;55.668;37.508;2023-04-27T02:05:07;98531.06;;;10.88;100.00
36600;BME280;35385;55.668;37.508;2023-04-27T02:06:08;98517.28;;;10.75;100.00
36600;BME280;35385;55.668;37.508;2023-04-27T02:07:08;98511.47;;;10.80;100.00
36600;BME280;35385;55.668;37.508;2023-04-27T02:08:09;98546.47;;;10.94;100.00
36600;BME280;35385;55.668;37.508;2023-04-27T02:09:09;98562.94;;;11.08;100.00
36600;BME280;35385;55.668;37.508;2023-04-27T02:10:10;98543.81;;;10.94;100.00
36600;BME280;35385;55.668;37.508;2023-04-27T02:11:11;98519.50;;;10.80;100.00
36600;BME280;35385;55.668;37.508;2023-04-27T02:12:11;98519.34;;;10.81;100.00
36600;BME280;35385;55.668;37.508;2023-04-27T02:13:12;98566.75;;;11.05;100.00
36600;BME280;35385;55.668;37.508;2023-04-27T02:14:13;98548.31;;;10.94;100.00
36600;BME280;35385;55.668;37.508;2023-04-27T02:15:13;98554.34;;;10.96;100.00
36600;BME280;35385;55.668;37.508;2023-04-27T02:16:14;98509.88;;;10.69;100.00
36600;BME280;35385;55.668;37.508;2023-04-27T02:17:15;98563.56;;;11.02;100.00
36600;BME280;35385;55.668;37.508;2023-04-27T02:18:15;98569.03;;;11.00;100.00
36600;BME280;35385;55.668;37.508;2023-04-27T02:19:16;98572.22;;;10.95;100.00
36600;BME280;35385;55.668;37.508;2023-04-27T02:20:17;98572.41;;;11.02;100.00
36600;BME280;35385;55.668;37.508;2023-04-27T02:21:17;98567.22;;;11.01;100.00
36600;BME280;35385;55.668;37.508;2023-04-27T02:22:18;98567.47;;;10.89;100.00
36600;BME280;35385;55.668;37.508;2023-04-27T02:23:18;98569.75;;;10.84;100.00
36600;BME280;35385;55.668;37.508;2023-04-27T02:24:19;98577.91;;;10.83;100.00
36600;BME280;35385;55.668;37.508;2023-04-27T02:25:19;98579.44;;;10.85;100.00
36600;BME280;35385;55.668;37.508;2023-04-27T02:26:21;98580.44;;;10.84;100.00
36600;BME280;35385;55.668;37.508;2023-04-27T02:27:22;98569.31;;;10.71;100.00
36600;BME280;35385;55.668;37.508;2023-04-27T02:28:23;98569.56;;;10.78;100.00
36600;BME280;35385;55.668;37.508;2023-04-27T02:29:28;98545.91;;;10.65;100.00
36600;BME280;35385;55.668;37.508;2023-04-27T02:30:29;98575.72;;;10.78;100.00
36600;BME280;35385;55.668;37.508;2023-04-27T02:31:30;98580.44;;;10.84;100.00
36600;BME280;35385;55.668;37.508;2023-04-27T02:32:30;98566.19;;;10.76;100.00
36600;BME280;35385;55.668;37.508;2023-04-27T02:33:31;98541.41;;;10.66;100.00
36600;BME280;35385;55.668;37.508;2023-04-27T02:34:32;98547.09;;;10.71;100.00
36600;BME280;35385;55.668;37.508;2023-04-27T02:35:32;98581.22;;;10.94;100.00
36600;BME280;35385;55.668;37.508;2023-04-27T02:36:33;98575.34;;;10.91;100.00
36600;BME280;35385;55.668;37.508;2023-04-27T02:37:33;98583.88;;;10.94;100.00
36600;BME280;35385;55.668;37.508;2023-04-27T02:38:34;98540.63;;;10.73;100.00
36600;BME280;35385;55.668;37.508;2023-04-27T02:39:34;98588.25;;;10.95;100.00
36600;BME280;35385;55.668;37.508;2023-04-27T02:40:35;98523.78;;;10.55;100.00
36600;BME280;35385;55.668;37.508;2023-04-27T02:41:36;98498.47;;;10.41;100.00
36600;BME280;35385;55.668;37.508;2023-04-27T02:42:36;98582.34;;;10.92;100.00
36600;BME280;35385;55.668;37.508;2023-04-27T02:43:40;98582.56;;;10.98;100.00
36600;BME280;35385;55.668;37.508;2023-04-27T02:44:40;98568.00;;;10.93;100.00
36600;BME280;35385;55.668;37.508;2023-04-27T02:45:41;98573.84;;;10.96;100.00
36600;BME280;35385;55.668;37.508;2023-04-27T02:46:41;98527.53;;;10.62;100.00
36600;BME280;35385;55.668;37.508;2023-04-27T02:47:42;98588.88;;;10.97;100.00
36600;BME280;35385;55.668;37.508;2023-04-27T02:48:43;98541.63;;;10.72;100.00
36600;BME280;35385;55.668;37.508;2023-04-27T02:49:43;98595.91;;;10.98;100.00
36600;BME280;35385;55.668;37.508;2023-04-27T02:50:44;98534.25;;;10.66;100.00
36600;BME280;35385;55.668;37.508;2023-04-27T02:51:45;98550.00;;;10.77;100.00
36600;BME280;35385;55.668;37.508;2023-04-27T02:52:45;98554.66;;;10.75;100.00
36600;BME280;35385;55.668;37.508;2023-04-27T02:53:46;98595.63;;;11.02;100.00
36600;BME280;35385;55.668;37.508;2023-04-27T02:54:47;98546.34;;;10.78;100.00
36600;BME280;35385;55.668;37.508;2023-04-27T02:55:48;98548.34;;;10.76;100.00
36600;BME280;35385;55.668;37.508;2023-04-27T02:56:49;98599.50;;;11.07;100.00
36600;BME280;35385;55.668;37.508;2023-04-27T02:57:49;98563.66;;;10.74;100.00
36600;BME280;35385;55.668;37.508;2023-04-27T02:58:50;98581.53;;;10.91;100.00
36600;BME280;35385;55.668;37.508;2023-04-27T02:59:51;98608.13;;;11.01;100.00
36600;BME280;35385;55.668;37.508;2023-04-27T03:00:53;98602.59;;;10.94;100.00
36600;BME280;35385;55.668;37.508;2023-04-27T03:01:54;98597.47;;;10.83;100.00
36600;BME280;35385;55.668;37.508;2023-04-27T03:02:55;98593.19;;;10.90;100.00
36600;BME280;35385;55.668;37.508;2023-04-27T03:03:56;98565.34;;;10.75;100.00
36600;BME280;35385;55.668;37.508;2023-04-27T03:04:56;98605.47;;;11.01;100.00
36600;BME280;35385;55.668;37.508;2023-04-27T03:05:58;98568.41;;;10.80;100.00
36600;BME280;35385;55.668;37.508;2023-04-27T03:06:59;98615.91;;;11.12;100.00
36600;BME280;35385;55.668;37.508;2023-04-27T03:07:59;98613.06;;;11.14;100.00
36600;BME280;35385;55.668;37.508;2023-04-27T03:09:00;98601.34;;;11.07;100.00
36600;BME280;35385;55.668;37.508;2023-04-27T03:10:00;98595.00;;;11.08;100.00
36600;BME280;35385;55.668;37.508;2023-04-27T03:11:01;98597.03;;;11.14;100.00
36600;BME280;35385;55.668;37.508;2023-04-27T03:12:02;98565.09;;;10.86;100.00
36600;BME280;35385;55.668;37.508;2023-04-27T03:13:02;98559.47;;;10.89;100.00
36600;BME280;35385;55.668;37.508;2023-04-27T03:14:05;98618.13;;;11.17;100.00
36600;BME280;35385;55.668;37.508;2023-04-27T03:15:06;98618.66;;;11.20;100.00
36600;BME280;35385;55.668;37.508;2023-04-27T03:16:08;98623.84;;;11.22;100.00
36600;BME280;35385;55.668;37.508;2023-04-27T03:17:10;98616.13;;;11.19;100.00
36600;BME280;35385;55.668;37.508;2023-04-27T03:18:10;98618.34;;;11.23;100.00
36600;BME280;35385;55.668;37.508;2023-04-27T03:19:11;98629.25;;;11.30;100.00
36600;BME280;35385;55.668;37.508;2023-04-27T03:20:12;98630.34;;;11.19;100.00
36600;BME280;35385;55.668;37.508;2023-04-27T03:21:12;98628.66;;;11.18;100.00
36600;BME280;35385;55.668;37.508;2023-04-27T03:22:13;98626.97;;;11.17;100.00
36600;BME280;35385;55.668;37.508;2023-04-27T03:23:13;98635.38;;;11.22;100.00
36600;BME280;35385;55.668;37.508;2023-04-27T03:24:14;98629.03;;;11.23;100.00
36600;BME280;35385;55.668;37.508;2023-04-27T03:25:15;98604.06;;;11.15;100.00
36600;BME280;35385;55.668;37.508;2023-04-27T03:26:16;98618.19;;;11.25;100.00
36600;BME280;35385;55.668;37.508;2023-04-27T03:27:17;98624.88;;;11.29;100.00
36600;BME280;35385;55.668;37.508;2023-04-27T03:28:17;98593.91;;;11.18;100.00
36600;BME280;35385;55.668;37.508;2023-04-27T03:29:18;98615.03;;;11.29;100.00
36600;BME280;35385;55.668;37.508;2023-04-27T03:30:22;98621.34;;;11.46;100.00
36600;BME280;35385;55.668;37.508;2023-04-27T03:31:23;98621.38;;;11.54;100.00
36600;BME280;35385;55.668;37.508;2023-04-27T03:32:23;98642.53;;;11.65;100.00
36600;BME280;35385;55.668;37.508;2023-04-27T03:33:24;98618.91;;;11.61;100.00
36600;BME280;35385;55.668;37.508;2023-04-27T03:34:26;98631.13;;;11.63;100.00
36600;BME280;35385;55.668;37.508;2023-04-27T03:35:26;98641.13;;;11.79;100.00
36600;BME280;35385;55.668;37.508;2023-04-27T03:36:27;98628.19;;;11.75;100.00
36600;BME280;35385;55.668;37.508;2023-04-27T03:37:28;98625.91;;;11.80;100.00
36600;BME280;35385;55.668;37.508;2023-04-27T03:38:29;98636.31;;;11.83;100.00
36600;BME280;35385;55.668;37.508;2023-04-27T03:39:30;98630.97;;;11.83;100.00
36600;BME280;35385;55.668;37.508;2023-04-27T03:40:31;98626.94;;;11.87;100.00
36600;BME280;35385;55.668;37.508;2023-04-27T03:41:31;98641.09;;;12.05;100.00
36600;BME280;35385;55.668;37.508;2023-04-27T03:42:32;98635.06;;;12.03;100.00
36600;BME280;35385;55.668;37.508;2023-04-27T03:43:32;98640.03;;;11.98;100.00
36600;BME280;35385;55.668;37.508;2023-04-27T03:44:33;98643.91;;;12.03;100.00
36600;BME280;35385;55.668;37.508;2023-04-27T03:45:35;98645.75;;;12.03;100.00
36600;BME280;35385;55.668;37.508;2023-04-27T03:46:36;98642.78;;;12.06;100.00
36600;BME280;35385;55.668;37.508;2023-04-27T03:47:36;98621.00;;;12.01;100.00
36600;BME280;35385;55.668;37.508;2023-04-27T03:48:37;98652.50;;;12.15;100.00
36600;BME280;35385;55.668;37.508;2023-04-27T03:49:38;98651.88;;;12.21;100.00
36600;BME280;35385;55.668;37.508;2023-04-27T03:50:38;98593.84;;;11.88;100.00
36600;BME280;35385;55.668;37.508;2023-04-27T03:51:39;98641.84;;;12.23;100.00
36600;BME280;35385;55.668;37.508;2023-04-27T03:52:41;98647.38;;;12.30;100.00
36600;BME280;35385;55.668;37.508;2023-04-27T03:53:42;98646.72;;;12.36;100.00
36600;BME280;35385;55.668;37.508;2023-04-27T03:54:42;98644.75;;;12.46;100.00
36600;BME280;35385;55.668;37.508;2023-04-27T03:55:43;98640.41;;;12.45;100.00
36600;BME280;35385;55.668;37.508;2023-04-27T03:56:44;98592.59;;;12.16;100.00
36600;BME280;35385;55.668;37.508;2023-04-27T03:57:45;98632.88;;;12.41;100.00
36600;BME280;35385;55.668;37.508;2023-04-27T03:58:45;98643.22;;;12.35;100.00
36600;BME280;35385;55.668;37.508;2023-04-27T03:59:46;98642.78;;;12.14;100.00
36600;BME280;35385;55.668;37.508;2023-04-27T04:00:47;98622.81;;;12.00;100.00
36600;BME280;35385;55.668;37.508;2023-04-27T04:01:47;98651.16;;;12.11;100.00
36600;BME280;35385;55.668;37.508;2023-04-27T04:02:48;98659.06;;;12.29;100.00
36600;BME280;35385;55.668;37.508;2023-04-27T04:03:49;98656.97;;;12.41;100.00
36600;BME280;35385;55.668;37.508;2023-04-27T04:04:50;98659.72;;;12.65;100.00
36600;BME280;35385;55.668;37.508;2023-04-27T04:05:51;98652.84;;;12.70;100.00
36600;BME280;35385;55.668;37.508;2023-04-27T04:06:51;98655.38;;;12.80;100.00
36600;BME280;35385;55.668;37.508;2023-04-27T04:07:52;98648.34;;;12.87;100.00
36600;BME280;35385;55.668;37.508;2023-04-27T04:08:53;98636.28;;;12.75;100.00
36600;BME280;35385;55.668;37.508;2023-04-27T04:09:53;98654.03;;;12.76;100.00
36600;BME280;35385;55.668;37.508;2023-04-27T04:10:55;98644.00;;;12.78;100.00
36600;BME280;35385;55.668;37.508;2023-04-27T04:11:56;98613.13;;;12.58;100.00
36600;BME280;35385;55.668;37.508;2023-04-27T04:12:57;98594.41;;;12.66;100.00
36600;BME280;35385;55.668;37.508;2023-04-27T04:13:57;98657.28;;;13.20;100.00
36600;BME280;35385;55.668;37.508;2023-04-27T04:14:58;98608.16;;;13.03;100.00
36600;BME280;35385;55.668;37.508;2023-04-27T04:16:03;98498.63;;;12.35;100.00
36600;BME280;35385;55.668;37.508;2023-04-27T04:17:04;98660.81;;;13.37;100.00
36600;BME280;35385;55.668;37.508;2023-04-27T04:18:04;98661.16;;;13.26;100.00
36600;BME280;35385;55.668;37.508;2023-04-27T04:19:06;98665.34;;;13.20;100.00
36600;BME280;35385;55.668;37.508;2023-04-27T04:20:06;98660.50;;;13.24;100.00
36600;BME280;35385;55.668;37.508;2023-04-27T04:21:10;98666.16;;;13.29;100.00
36600;BME280;35385;55.668;37.508;2023-04-27T04:22:10;98654.28;;;13.23;100.00
36600;BME280;35385;55.668;37.508;2023-04-27T04:23:11;98658.47;;;13.34;100.00
36600;BME280;35385;55.668;37.508;2023-04-27T04:24:12;98654.75;;;13.43;100.00
36600;BME280;35385;55.668;37.508;2023-04-27T04:25:12;98644.53;;;13.47;100.00
36600;BME280;35385;55.668;37.508;2023-04-27T04:26:13;98664.31;;;13.45;100.00
36600;BME280;35385;55.668;37.508;2023-04-27T04:27:14;98668.84;;;13.45;100.00
36600;BME280;35385;55.668;37.508;2023-04-27T04:28:15;98681.41;;;13.69;100.00
36600;BME280;35385;55.668;37.508;2023-04-27T04:29:15;98671.00;;;13.74;100.00
36600;BME280;35385;55.668;37.508;2023-04-27T04:30:16;98668.44;;;13.89;100.00
36600;BME280;35385;55.668;37.508;2023-04-27T04:31:17;98671.13;;;13.89;100.00
36600;BME280;35385;55.668;37.508;2023-04-27T04:32:17;98673.13;;;13.95;100.00
36600;BME280;35385;55.668;37.508;2023-04-27T04:33:19;98675.31;;;13.91;100.00
36600;BME280;35385;55.668;37.508;2023-04-27T04:34:19;98669.28;;;13.97;100.00
36600;BME280;35385;55.668;37.508;2023-04-27T04:35:21;98620.72;;;13.68;100.00
36600;BME280;35385;55.668;37.508;2023-04-27T04:36:21;98619.16;;;13.82;100.00
36600;BME280;35385;55.668;37.508;2023-04-27T04:37:23;98671.72;;;14.15;100.00
36600;BME280;35385;55.668;37.508;2023-04-27T04:38:23;98664.19;;;14.10;100.00
36600;BME280;35385;55.668;37.508;2023-04-27T04:39:24;98615.25;;;13.92;100.00
36600;BME280;35385;55.668;37.508;2023-04-27T04:40:29;98632.31;;;14.07;100.00
36600;BME280;35385;55.668;37.508;2023-04-27T04:41:30;98657.94;;;14.18;100.00
36600;BME280;35385;55.668;37.508;2023-04-27T04:42:31;98662.25;;;14.35;100.00
36600;BME280;35385;55.668;37.508;2023-04-27T04:43:32;98611.78;;;14.23;100.00
36600;BME280;35385;55.668;37.508;2023-04-27T04:44:33;98633.34;;;14.45;100.00
36600;BME280;35385;55.668;37.508;2023-04-27T04:45:34;98667.63;;;14.74;100.00
36600;BME280;35385;55.668;37.508;2023-04-27T04:46:34;98660.38;;;14.75;100.00
36600;BME280;35385;55.668;37.508;2023-04-27T04:47:36;98626.28;;;14.53;100.00
36600;BME280;35385;55.668;37.508;2023-04-27T04:48:38;98665.41;;;14.78;100.00
36600;BME280;35385;55.668;37.508;2023-04-27T04:49:39;98679.28;;;14.90;100.00
36600;BME280;35385;55.668;37.508;2023-04-27T04:50:39;98673.31;;;15.02;100.00
36600;BME280;35385;55.668;37.508;2023-04-27T04:51:42;98671.97;;;15.29;100.00
36600;BME280;35385;55.668;37.508;2023-04-27T04:52:43;98671.59;;;15.55;100.00
36600;BME280;35385;55.668;37.508;2023-04-27T04:53:43;98630.34;;;15.40;100.00
36600;BME280;35385;55.668;37.508;2023-04-27T04:54:44;98674.91;;;15.80;100.00
36600;BME280;35385;55.668;37.508;2023-04-27T04:55:45;98651.78;;;15.71;100.00
36600;BME280;35385;55.668;37.508;2023-04-27T04:56:45;98666.34;;;15.91;100.00
36600;BME280;35385;55.668;37.508;2023-04-27T04:57:46;98670.66;;;16.00;100.00
36600;BME280;35385;55.668;37.508;2023-04-27T04:58:47;98648.09;;;16.01;100.00
36600;BME280;35385;55.668;37.508;2023-04-27T04:59:47;98674.91;;;16.39;100.00
36600;BME280;35385;55.668;37.508;2023-04-27T05:00:48;98659.09;;;16.50;100.00
36600;BME280;35385;55.668;37.508;2023-04-27T05:01:48;98666.25;;;16.73;100.00
36600;BME280;35385;55.668;37.508;2023-04-27T05:02:49;98677.63;;;16.89;100.00
36600;BME280;35385;55.668;37.508;2023-04-27T05:03:49;98668.59;;;16.97;100.00
36600;BME280;35385;55.668;37.508;2023-04-27T05:04:50;98672.72;;;17.14;100.00
36600;BME280;35385;55.668;37.508;2023-04-27T05:05:51;98672.59;;;17.22;100.00
36600;BME280;35385;55.668;37.508;2023-04-27T05:06:52;98655.38;;;17.23;100.00
36600;BME280;35385;55.668;37.508;2023-04-27T05:07:52;98674.88;;;17.47;100.00
36600;BME280;35385;55.668;37.508;2023-04-27T05:08:53;98520.47;;;16.59;100.00
36600;BME280;35385;55.668;37.508;2023-04-27T05:09:53;98681.94;;;17.48;100.00
36600;BME280;35385;55.668;37.508;2023-04-27T05:10:54;98685.81;;;16.96;100.00
36600;BME280;35385;55.668;37.508;2023-04-27T05:11:55;98691.91;;;16.69;100.00
36600;BME280;35385;55.668;37.508;2023-04-27T05:12:56;98668.19;;;16.49;100.00
36600;BME280;35385;55.668;37.508;2023-04-27T05:13:56;98690.72;;;16.71;100.00